createdAt,value
2018-12-27T00:01:12.113Z,0.95
2018-12-27T00:03:38.880Z,0.34
2018-12-27T00:06:05.620Z,0.77
2018-12-27T00:08:32.381Z,0.52
2018-12-27T00:10:59.132Z,0.98
2018-12-27T00:13:25.888Z,1.18
2018-12-27T00:15:52.652Z,0.68
2018-12-27T00:18:19.397Z,0.69
2018-12-27T00:20:46.145Z,0.24
2018-12-27T00:23:12.930Z,0.72
2018-12-27T00:25:39.693Z,0.71
2018-12-27T00:28:06.477Z,0.19
2018-12-27T00:30:33.212Z,0.55
2018-12-27T00:33:03.209Z,0.20
2018-12-27T00:35:26.765Z,0.66
2018-12-27T00:37:53.518Z,0.65
2018-12-27T00:40:20.259Z,0.33
2018-12-27T00:42:47.013Z,0.72
2018-12-27T00:45:13.765Z,0.25
2018-12-27T00:47:40.520Z,0.53
2018-12-27T00:50:07.259Z,0.73
2018-12-27T00:52:34.173Z,0.24
2018-12-27T00:55:01.009Z,0.52
2018-12-27T00:57:27.757Z,0.13
2018-12-27T00:59:54.521Z,0.76
2018-12-27T01:02:21.260Z,0.16
2018-12-27T01:04:48.024Z,0.73
2018-12-27T01:07:14.779Z,0.58
2018-12-27T01:09:41.544Z,0.24
2018-12-27T01:12:08.280Z,0.81
2018-12-27T01:14:35.040Z,0.94
2018-12-27T01:17:01.784Z,0.40
2018-12-27T01:19:28.546Z,0.99
2018-12-27T01:21:55.285Z,1.04
2018-12-27T01:24:22.064Z,0.44
2018-12-27T01:26:48.804Z,0.86
2018-12-27T01:29:15.574Z,0.45
2018-12-27T01:31:42.308Z,1.06
2018-12-27T01:34:09.100Z,0.68
2018-12-27T01:36:35.834Z,1.15
2018-12-27T01:39:04.413Z,0.67
2018-12-27T01:41:31.168Z,1.03
2018-12-27T01:43:57.935Z,1.23
2018-12-27T01:46:24.671Z,1.22
2018-12-27T01:48:51.440Z,0.84
2018-12-27T01:51:18.176Z,1.04
2018-12-27T01:53:44.949Z,1.27
2018-12-27T01:56:11.694Z,0.54
2018-12-27T01:58:38.448Z,0.95
2018-12-27T02:01:05.206Z,0.43
2018-12-27T02:03:31.972Z,0.96
2018-12-27T02:05:59.055Z,0.70
2018-12-27T02:08:25.664Z,1.52
2018-12-27T02:10:52.432Z,1.10
2018-12-27T02:13:19.194Z,1.59
2018-12-27T02:15:45.964Z,0.96
2018-12-27T02:18:12.728Z,1.11
2018-12-27T02:20:39.686Z,0.60
2018-12-27T02:23:06.435Z,1.30
2018-12-27T02:25:33.222Z,1.43
2018-12-27T02:27:59.957Z,1.49
2018-12-27T02:30:26.731Z,0.91
2018-12-27T02:32:53.476Z,1.07
2018-12-27T02:35:20.242Z,0.68
2018-12-27T02:37:46.991Z,1.03
2018-12-27T02:40:13.761Z,0.76
2018-12-27T02:42:40.537Z,1.36
2018-12-27T02:45:07.314Z,0.89
2018-12-27T02:47:34.043Z,1.30
2018-12-27T02:50:00.799Z,0.99
2018-12-27T02:52:27.547Z,0.59
2018-12-27T02:54:54.308Z,0.78
2018-12-27T02:57:21.070Z,0.38
2018-12-27T02:59:47.840Z,0.47
2018-12-27T03:02:14.580Z,0.13
2018-12-27T03:04:41.353Z,0.42
2018-12-27T03:07:08.089Z,0.12
2018-12-27T03:09:34.855Z,0.45
2018-12-27T03:12:01.631Z,0.35
2018-12-27T03:14:28.389Z,0.09
2018-12-27T03:16:55.169Z,0.38
2018-12-27T03:19:21.912Z,0.44
2018-12-27T03:21:48.681Z,0.01
2018-12-27T03:24:15.433Z,0.19
2018-12-27T03:26:42.199Z,0.45
2018-12-27T03:29:08.976Z,0.33
2018-12-27T03:31:35.770Z,0.02
2018-12-27T03:34:02.517Z,0.13
2018-12-27T03:36:29.280Z,-0.16
2018-12-27T03:38:56.029Z,0.32
2018-12-27T03:41:22.814Z,0.11
2018-12-27T03:43:49.666Z,0.50
2018-12-27T03:46:16.444Z,0.92
2018-12-27T03:48:43.171Z,0.64
2018-12-27T03:51:09.936Z,1.16
2018-12-27T03:53:36.684Z,1.51
2018-12-27T03:56:03.478Z,0.92
2018-12-27T03:58:30.195Z,0.96
2018-12-27T04:00:56.947Z,0.86
2018-12-27T04:03:23.696Z,0.37
2018-12-27T04:05:50.465Z,0.62
2018-12-27T04:08:17.228Z,0.54
2018-12-27T04:10:43.995Z,0.55
2018-12-27T04:13:10.856Z,0.41
2018-12-27T04:15:37.524Z,0.63
2018-12-27T04:18:04.263Z,0.53
2018-12-27T04:20:31.024Z,0.22
2018-12-27T04:22:57.768Z,0.39
2018-12-27T04:25:24.638Z,0.36
2018-12-27T04:27:51.386Z,0.09
2018-12-27T04:30:18.212Z,0.45
2018-12-27T04:34:21.170Z,0.42
2018-12-27T04:36:47.924Z,0.59
2018-12-27T04:39:14.670Z,0.73
2018-12-27T04:41:41.434Z,0.37
2018-12-27T04:44:08.179Z,0.25
2018-12-27T04:46:34.928Z,0.35
2018-12-27T04:49:01.676Z,-0.05
2018-12-27T04:51:28.432Z,-0.14
2018-12-27T04:53:55.216Z,-0.03
2018-12-27T04:56:21.964Z,0.32
2018-12-27T04:58:48.812Z,0.45
2018-12-27T05:01:15.565Z,0.30
2018-12-27T05:03:42.311Z,0.67
2018-12-27T05:06:09.068Z,0.51
2018-12-27T05:08:35.807Z,0.12
2018-12-27T05:11:02.552Z,0.44
2018-12-27T05:13:29.280Z,0.40
2018-12-27T05:15:56.036Z,0.04
2018-12-27T05:18:22.767Z,0.31
2018-12-27T05:20:49.520Z,0.27
2018-12-27T05:23:16.277Z,0.09
2018-12-27T05:25:43.026Z,0.12
2018-12-27T05:28:09.761Z,0.32
2018-12-27T05:30:36.500Z,-0.07
2018-12-27T05:33:03.259Z,0.22
2018-12-27T05:35:29.984Z,0.35
2018-12-27T05:37:56.753Z,-0.07
2018-12-27T05:40:23.496Z,0.01
2018-12-27T05:42:50.241Z,0.02
2018-12-27T05:45:16.996Z,-0.23
2018-12-27T05:47:43.745Z,0.24
2018-12-27T05:50:10.490Z,0.17
2018-12-27T05:52:37.256Z,-0.25
2018-12-27T05:55:04.012Z,-0.10
2018-12-27T05:57:30.772Z,-0.27
2018-12-27T05:59:57.495Z,0.02
2018-12-27T06:02:24.284Z,0.04
2018-12-27T06:04:51.040Z,-0.44
2018-12-27T06:07:17.788Z,-0.28
2018-12-27T06:09:44.528Z,0.01
2018-12-27T06:12:11.296Z,-0.20
2018-12-27T06:14:38.024Z,-0.04
2018-12-27T06:17:04.851Z,0.29
2018-12-27T06:19:31.681Z,-0.14
2018-12-27T06:21:58.441Z,-0.02
2018-12-27T06:24:25.161Z,0.06
2018-12-27T06:26:51.908Z,-0.23
2018-12-27T06:29:18.648Z,0.10
2018-12-27T06:31:45.408Z,0.07
2018-12-27T06:34:12.157Z,-0.29
2018-12-27T06:36:38.885Z,0.11
2018-12-27T06:39:06.037Z,0.37
2018-12-27T06:41:32.961Z,-0.08
2018-12-27T06:43:59.722Z,0.43
2018-12-27T06:46:26.464Z,0.70
2018-12-27T06:48:53.216Z,0.18
2018-12-27T06:51:19.968Z,0.57
2018-12-27T06:53:46.728Z,0.78
2018-12-27T06:56:13.464Z,0.33
2018-12-27T06:58:40.226Z,0.98
2018-12-27T07:01:06.960Z,1.09
2018-12-27T07:03:33.736Z,0.46
2018-12-27T07:06:00.468Z,0.94
2018-12-27T07:08:27.224Z,0.97
2018-12-27T07:10:53.972Z,0.54
2018-12-27T07:13:20.736Z,1.23
2018-12-27T07:15:47.464Z,1.30
2018-12-27T07:18:14.225Z,0.89
2018-12-27T07:20:40.956Z,1.25
2018-12-27T07:23:07.717Z,1.21
2018-12-27T07:25:34.444Z,1.27
2018-12-27T07:28:01.200Z,0.86
2018-12-27T07:30:27.952Z,0.85
2018-12-27T07:32:54.704Z,1.38
2018-12-27T07:35:21.444Z,0.86
2018-12-27T07:37:48.208Z,1.09
2018-12-27T07:40:14.940Z,1.05
2018-12-27T07:42:41.692Z,0.70
2018-12-27T07:45:08.598Z,1.13
2018-12-27T07:47:35.683Z,0.72
2018-12-27T07:50:02.503Z,0.80
2018-12-27T07:52:29.259Z,0.78
2018-12-27T07:54:56.037Z,0.61
2018-12-27T07:57:22.795Z,1.16
2018-12-27T07:59:49.535Z,1.13
2018-12-27T08:02:16.291Z,0.48
2018-12-27T08:04:43.044Z,0.40
2018-12-27T08:07:09.878Z,0.61
2018-12-27T08:09:36.603Z,0.24
2018-12-27T08:12:03.352Z,0.70
2018-12-27T08:14:30.157Z,1.00
2018-12-27T08:16:56.986Z,0.69
2018-12-27T08:19:23.776Z,0.94
2018-12-27T08:21:50.520Z,0.53
2018-12-27T08:24:17.300Z,0.85
2018-12-27T08:26:44.144Z,0.33
2018-12-27T08:29:10.897Z,0.43
2018-12-27T08:31:37.653Z,0.10
2018-12-27T08:34:04.475Z,0.32
2018-12-27T08:36:31.225Z,-0.19
2018-12-27T08:38:57.976Z,0.19
2018-12-27T08:41:24.795Z,0.12
2018-12-27T08:43:51.537Z,0.61
2018-12-27T08:46:18.291Z,0.67
2018-12-27T08:48:45.072Z,0.21
2018-12-27T08:51:11.796Z,0.66
2018-12-27T08:53:38.563Z,0.21
2018-12-27T08:56:05.320Z,0.47
2018-12-27T08:58:32.188Z,0.10
2018-12-27T09:00:58.921Z,0.66
2018-12-27T09:03:25.687Z,0.26
2018-12-27T09:05:52.448Z,0.28
2018-12-27T09:08:20.317Z,0.64
2018-12-27T09:10:47.095Z,0.19
2018-12-27T09:13:13.837Z,0.50
2018-12-27T09:15:40.609Z,0.02
2018-12-27T09:18:07.366Z,0.53
2018-12-27T09:20:34.124Z,0.18
2018-12-27T09:23:00.865Z,0.16
2018-12-27T09:25:27.624Z,0.16
2018-12-27T09:27:54.508Z,-0.14
2018-12-27T09:30:21.269Z,0.13
2018-12-27T09:32:48.016Z,-0.07
2018-12-27T09:35:14.766Z,0.38
2018-12-27T09:37:41.506Z,0.18
2018-12-27T09:40:08.272Z,0.24
2018-12-27T09:42:35.012Z,0.92
2018-12-27T09:45:01.779Z,0.46
2018-12-27T09:47:28.596Z,0.46
2018-12-27T09:49:55.422Z,0.28
2018-12-27T09:52:22.156Z,0.59
2018-12-27T09:54:48.926Z,0.18
2018-12-27T09:57:15.833Z,0.56
2018-12-27T09:59:42.601Z,0.69
2018-12-27T10:02:09.365Z,0.48
2018-12-27T10:04:36.195Z,0.94
2018-12-27T10:07:02.935Z,0.95
2018-12-27T10:09:29.797Z,0.75
2018-12-27T10:11:56.550Z,0.98
2018-12-27T10:14:23.308Z,0.71
2018-12-27T10:16:50.097Z,1.00
2018-12-27T10:19:16.894Z,0.56
2018-12-27T10:21:43.620Z,0.83
2018-12-27T10:24:10.448Z,0.72
2018-12-27T10:26:37.216Z,1.25
2018-12-27T10:29:03.998Z,1.31
2018-12-27T10:31:30.860Z,0.84
2018-12-27T10:33:57.708Z,1.49
2018-12-27T10:36:24.505Z,1.71
2018-12-27T10:38:52.779Z,1.34
2018-12-27T10:41:19.540Z,1.64
2018-12-27T10:43:46.353Z,0.99
2018-12-27T10:46:13.104Z,0.65
2018-12-27T10:48:39.888Z,0.29
2018-12-27T10:51:06.690Z,0.72
2018-12-27T10:53:33.432Z,1.19
2018-12-27T10:56:00.204Z,1.10
2018-12-27T10:58:26.969Z,1.33
2018-12-27T11:00:53.832Z,1.60
2018-12-27T11:03:20.638Z,1.25
2018-12-27T11:05:48.723Z,1.68
2018-12-27T11:08:14.272Z,1.66
2018-12-27T11:10:41.065Z,1.31
2018-12-27T11:13:07.808Z,1.52
2018-12-27T11:15:34.613Z,1.34
2018-12-27T11:18:01.359Z,1.47
2018-12-27T11:20:28.380Z,1.25
2018-12-27T11:22:55.179Z,1.32
2018-12-27T11:25:21.940Z,1.01
2018-12-27T11:27:48.741Z,1.57
2018-12-27T11:30:15.492Z,1.73
2018-12-27T11:32:42.264Z,0.71
2018-12-27T11:35:09.076Z,0.87
2018-12-27T11:37:35.836Z,0.66
2018-12-27T11:40:02.675Z,1.16
2018-12-27T11:42:29.515Z,1.00
2018-12-27T11:44:56.397Z,1.13
2018-12-27T11:47:23.196Z,1.07
2018-12-27T11:49:49.997Z,1.36
2018-12-27T11:52:17.461Z,0.89
2018-12-27T11:54:44.380Z,1.19
2018-12-27T11:57:11.164Z,1.50
2018-12-27T11:59:37.989Z,0.95
2018-12-27T12:02:04.810Z,0.59
2018-12-27T12:04:31.652Z,0.86
2018-12-27T12:06:58.600Z,1.64
2018-12-27T12:09:26.374Z,1.91
2018-12-27T12:11:54.472Z,1.52
2018-12-27T12:14:20.874Z,1.95
2018-12-27T12:16:47.661Z,1.66
2018-12-27T12:19:14.472Z,2.23
2018-12-27T12:21:41.236Z,2.15
2018-12-27T12:24:08.038Z,1.57
2018-12-27T12:26:34.849Z,1.97
2018-12-27T12:29:02.003Z,1.32
2018-12-27T12:31:28.762Z,1.53
2018-12-27T12:33:55.852Z,1.60
2018-12-27T12:36:22.745Z,1.81
2018-12-27T12:38:49.865Z,1.03
2018-12-27T12:41:16.799Z,1.39
2018-12-27T12:43:43.596Z,1.14
2018-12-27T12:46:10.414Z,1.06
2018-12-27T12:48:37.195Z,0.79
2018-12-27T12:51:04.382Z,0.61
2018-12-27T12:53:33.014Z,1.15
2018-12-27T12:55:59.809Z,1.35
2018-12-27T12:58:26.723Z,0.45
2018-12-27T13:00:53.626Z,1.07
2018-12-27T13:03:20.444Z,0.65
2018-12-27T13:05:47.280Z,-0.07
2018-12-27T13:08:14.049Z,0.25
2018-12-27T13:10:40.841Z,0.72
2018-12-27T13:13:07.721Z,0.82
2018-12-27T13:15:34.568Z,1.43
2018-12-27T13:18:01.378Z,1.85
2018-12-27T13:20:28.944Z,1.11
2018-12-27T13:22:55.770Z,1.34
2018-12-27T13:25:22.582Z,1.69
2018-12-27T13:27:49.387Z,1.43
2018-12-27T13:30:16.278Z,1.95
2018-12-27T13:32:43.141Z,2.03
2018-12-27T13:35:09.933Z,1.42
2018-12-27T13:37:36.770Z,1.84
2018-12-27T13:40:03.819Z,2.20
2018-12-27T13:42:30.594Z,1.46
2018-12-27T13:44:57.410Z,1.85
2018-12-27T13:47:24.224Z,2.11
2018-12-27T13:49:51.250Z,1.79
2018-12-27T13:52:18.251Z,2.23
2018-12-27T13:54:45.240Z,2.30
2018-12-27T13:57:16.229Z,1.91
2018-12-27T13:59:43.186Z,1.96
2018-12-27T14:02:10.237Z,2.06
2018-12-27T14:04:37.474Z,1.51
2018-12-27T14:07:04.507Z,1.64
2018-12-27T14:09:31.559Z,1.36
2018-12-27T14:11:58.364Z,1.54
2018-12-27T14:14:25.297Z,1.26
2018-12-27T14:16:52.185Z,1.15
2018-12-27T14:19:19.127Z,1.64
2018-12-27T14:21:46.146Z,1.15
2018-12-27T14:24:13.076Z,1.68
2018-12-27T14:26:40.000Z,0.79
2018-12-27T14:29:06.845Z,0.36
2018-12-27T14:31:33.622Z,0.35
2018-12-27T14:34:00.746Z,0.09
2018-12-27T14:36:27.631Z,0.25
2018-12-27T14:38:54.458Z,0.50
2018-12-27T14:41:21.349Z,0.68
2018-12-27T14:43:48.150Z,0.19
2018-12-27T14:46:14.895Z,0.01
2018-12-27T14:48:41.693Z,0.58
2018-12-27T14:51:08.448Z,0.68
2018-12-27T14:53:35.264Z,1.22
2018-12-27T14:56:02.024Z,1.40
2018-12-27T14:58:28.848Z,0.93
2018-12-27T15:00:55.722Z,1.29
2018-12-27T15:03:22.461Z,1.33
2018-12-27T15:05:49.292Z,1.45
2018-12-27T15:08:16.075Z,1.46
2018-12-27T15:10:42.811Z,1.60
2018-12-27T15:13:09.601Z,0.94
2018-12-27T15:15:36.356Z,1.57
2018-12-27T15:18:03.095Z,1.85
2018-12-27T15:20:29.840Z,1.22
2018-12-27T15:22:56.604Z,1.38
2018-12-27T15:25:23.336Z,1.47
2018-12-27T15:27:50.084Z,1.09
2018-12-27T15:30:16.920Z,1.31
2018-12-27T15:32:43.676Z,1.48
2018-12-27T15:35:10.511Z,1.48
2018-12-27T15:37:37.293Z,1.07
2018-12-27T15:40:05.670Z,1.17
2018-12-27T15:42:30.936Z,1.25
2018-12-27T15:44:57.753Z,0.98
2018-12-27T15:47:24.513Z,1.39
2018-12-27T15:49:51.359Z,1.02
2018-12-27T15:52:18.093Z,1.28
2018-12-27T15:54:44.925Z,0.97
2018-12-27T15:57:11.674Z,1.31
2018-12-27T15:59:38.445Z,1.02
2018-12-27T16:02:05.200Z,1.07
2018-12-27T16:04:31.980Z,0.90
2018-12-27T16:07:02.002Z,0.73
2018-12-27T16:09:26.042Z,0.35
2018-12-27T16:11:52.940Z,-0.23
2018-12-27T16:14:19.943Z,0.01
2018-12-27T16:16:46.693Z,0.23
2018-12-27T16:19:13.464Z,0.19
2018-12-27T16:21:40.994Z,0.65
2018-12-27T16:24:07.125Z,0.92
2018-12-27T16:26:33.941Z,0.15
2018-12-27T16:29:00.704Z,0.71
2018-12-27T16:31:27.452Z,0.12
2018-12-27T16:33:54.210Z,0.28
2018-12-27T16:36:20.968Z,0.72
2018-12-27T16:38:47.741Z,0.54
2018-12-27T16:41:14.484Z,0.73
2018-12-27T16:43:41.316Z,0.04
2018-12-27T16:46:08.089Z,-0.11
2018-12-27T16:48:35.289Z,0.28
2018-12-27T16:51:02.843Z,0.71
2018-12-27T16:53:29.749Z,0.55
2018-12-27T16:55:56.703Z,0.78
2018-12-27T16:58:23.496Z,1.14
2018-12-27T17:00:50.264Z,0.88
2018-12-27T17:03:17.024Z,0.76
2018-12-27T17:05:43.896Z,0.16
2018-12-27T17:08:10.724Z,0.37
2018-12-27T17:10:37.606Z,0.15
2018-12-27T17:13:04.398Z,0.01
2018-12-27T17:15:31.192Z,-0.18
2018-12-27T17:17:58.055Z,-0.44
2018-12-27T17:20:24.824Z,-0.19
2018-12-27T17:22:51.699Z,0.21
2018-12-27T17:25:18.536Z,0.37
2018-12-27T17:27:45.436Z,0.03
2018-12-27T17:30:12.250Z,-0.02
2018-12-27T17:32:39.081Z,-0.03
2018-12-27T17:35:06.332Z,-0.33
2018-12-27T17:37:33.121Z,-0.41
2018-12-27T17:39:59.935Z,-0.16
2018-12-27T17:42:26.756Z,-0.20
2018-12-27T17:44:55.156Z,0.31
2018-12-27T17:47:22.072Z,0.86
2018-12-27T17:49:49.082Z,0.48
2018-12-27T17:52:16.176Z,0.83
2018-12-27T17:54:43.138Z,0.40
2018-12-27T17:57:10.107Z,-0.06
2018-12-27T17:59:36.873Z,-0.08
2018-12-27T18:02:03.625Z,-0.35
2018-12-27T18:04:30.404Z,-0.19
2018-12-27T18:06:57.144Z,-0.40
2018-12-27T18:09:23.916Z,-0.19
2018-12-27T18:11:50.661Z,0.38
2018-12-27T18:14:17.456Z,0.32
2018-12-27T18:16:44.205Z,0.69
2018-12-27T18:19:11.218Z,1.11
2018-12-27T18:21:38.099Z,0.55
2018-12-27T18:24:04.835Z,0.97
2018-12-27T18:26:31.584Z,0.97
2018-12-27T18:28:58.522Z,0.86
2018-12-27T18:31:25.313Z,0.24
2018-12-27T18:33:52.160Z,-0.02
2018-12-27T18:36:19.099Z,-0.23
2018-12-27T18:38:46.966Z,-0.24
2018-12-27T18:41:13.917Z,-0.19
2018-12-27T18:43:41.815Z,-0.21
2018-12-27T18:46:08.708Z,-0.04
2018-12-27T18:48:36.455Z,0.56
2018-12-27T18:51:03.366Z,0.90
2018-12-27T18:53:30.256Z,0.76
2018-12-27T18:55:57.135Z,1.09
2018-12-27T18:58:24.008Z,1.31
2018-12-27T19:00:51.502Z,0.93
2018-12-27T19:03:18.480Z,1.18
2018-12-27T19:05:45.392Z,1.26
2018-12-27T19:08:12.353Z,1.45
2018-12-27T19:10:40.099Z,1.12
2018-12-27T19:13:12.018Z,1.42
2018-12-27T19:15:47.429Z,0.67
2018-12-27T19:18:22.183Z,1.01
2018-12-27T19:20:53.185Z,0.82
2018-12-27T19:23:20.836Z,1.13
2018-12-27T19:25:47.967Z,0.90
2018-12-27T19:28:14.938Z,1.15
2018-12-27T19:30:41.806Z,0.91
2018-12-27T19:33:08.939Z,1.26
2018-12-27T19:35:35.845Z,0.94
2018-12-27T19:38:02.678Z,1.34
2018-12-27T19:40:29.529Z,1.10
2018-12-27T19:42:56.481Z,1.58
2018-12-27T19:45:23.329Z,1.71
2018-12-27T19:47:50.204Z,1.13
2018-12-27T19:50:16.985Z,1.56
2018-12-27T19:52:43.852Z,1.55
2018-12-27T19:55:10.809Z,1.10
2018-12-27T19:57:37.629Z,1.69
2018-12-27T20:00:04.520Z,1.68
2018-12-27T20:02:31.403Z,1.07
2018-12-27T20:04:58.236Z,1.49
2018-12-27T20:07:25.100Z,1.49
2018-12-27T20:09:51.956Z,0.72
2018-12-27T20:12:18.936Z,0.93
2018-12-27T20:14:46.051Z,0.98
2018-12-27T20:17:12.926Z,1.24
2018-12-27T20:19:39.764Z,1.17
2018-12-27T20:22:06.624Z,0.54
2018-12-27T20:24:33.640Z,0.99
2018-12-27T20:27:00.491Z,0.58
2018-12-27T20:29:27.342Z,0.63
2018-12-27T20:31:54.184Z,0.87
2018-12-27T20:34:21.026Z,1.20
2018-12-27T20:36:48.568Z,1.21
2018-12-27T20:39:15.399Z,1.06
2018-12-27T20:41:42.281Z,1.25
2018-12-27T20:44:09.205Z,1.22
2018-12-27T20:46:36.030Z,0.96
2018-12-27T20:49:02.883Z,1.28
2018-12-27T20:51:30.556Z,1.35
2018-12-27T20:53:57.378Z,0.90
2018-12-27T20:56:24.915Z,1.13
2018-12-27T20:58:51.071Z,1.43
2018-12-27T21:01:18.701Z,1.24
2018-12-27T21:03:45.604Z,1.59
2018-12-27T21:06:12.625Z,0.98
2018-12-27T21:08:40.233Z,1.18
2018-12-27T21:11:07.155Z,0.51
2018-12-27T21:13:34.484Z,1.00
2018-12-27T21:16:01.526Z,0.95
2018-12-27T21:18:29.393Z,0.76
2018-12-27T21:20:56.239Z,1.04
2018-12-27T21:23:23.528Z,0.92
2018-12-27T21:25:50.360Z,1.33
2018-12-27T21:28:17.278Z,1.55
2018-12-27T21:30:44.164Z,0.90
2018-12-27T21:33:11.060Z,1.34
2018-12-27T21:35:37.933Z,1.53
2018-12-27T21:38:04.801Z,1.64
2018-12-27T21:40:31.658Z,1.38
2018-12-27T21:42:58.534Z,1.77
2018-12-27T21:45:25.365Z,1.40
2018-12-27T21:47:52.267Z,1.70
2018-12-27T21:50:19.111Z,1.46
2018-12-27T21:52:46.009Z,1.82
2018-12-27T21:55:12.839Z,1.32
2018-12-27T21:57:39.656Z,1.59
2018-12-27T22:00:07.036Z,1.58
2018-12-27T22:02:33.951Z,1.14
2018-12-27T22:05:00.816Z,1.69
2018-12-27T22:07:27.601Z,1.70
2018-12-27T22:09:54.348Z,1.90
2018-12-27T22:12:21.211Z,1.30
2018-12-27T22:14:48.201Z,1.73
2018-12-27T22:17:16.486Z,1.20
2018-12-27T22:19:43.349Z,1.22
2018-12-27T22:22:10.221Z,1.38
2018-12-27T22:24:37.024Z,1.11
2018-12-27T22:27:03.807Z,1.17
2018-12-27T22:29:30.712Z,1.03
2018-12-27T22:31:57.512Z,0.74
2018-12-27T22:34:24.336Z,1.40
2018-12-27T22:36:51.173Z,1.03
2018-12-27T22:39:17.985Z,1.49
2018-12-27T22:41:44.816Z,1.54
2018-12-27T22:44:11.625Z,1.26
2018-12-27T22:46:38.419Z,1.62
2018-12-27T22:49:05.233Z,1.35
2018-12-27T22:51:32.001Z,1.19
2018-12-27T22:53:58.766Z,1.47
2018-12-27T22:56:25.708Z,1.44
2018-12-27T22:58:52.568Z,1.79
2018-12-27T23:01:19.340Z,1.33
2018-12-27T23:03:46.160Z,1.49
2018-12-27T23:06:13.240Z,1.23
2018-12-27T23:08:43.194Z,1.34
2018-12-27T23:11:06.849Z,0.98
2018-12-27T23:13:33.627Z,1.46
2018-12-27T23:16:00.451Z,1.24
2018-12-27T23:18:27.324Z,1.58
2018-12-27T23:20:54.124Z,1.28
2018-12-27T23:23:20.920Z,1.64
2018-12-27T23:25:47.709Z,1.02
2018-12-27T23:28:16.325Z,0.35
2018-12-27T23:30:43.107Z,0.14
2018-12-27T23:33:09.922Z,0.12
2018-12-27T23:35:36.708Z,0.68
2018-12-27T23:38:03.527Z,1.08
2018-12-27T23:40:30.541Z,0.82
2018-12-27T23:42:57.374Z,1.01
2018-12-27T23:45:24.429Z,0.63
2018-12-27T23:47:51.574Z,0.39
2018-12-27T23:50:18.403Z,-0.05
2018-12-27T23:52:45.147Z,-0.26
2018-12-27T23:55:11.988Z,-0.41
2018-12-27T23:57:38.777Z,0.02
